Time;durP1;ratioP1;P1;durP2;ratioP2;P2;SDS_P1;SDS_P2;PMS_P1;PMS_P2;Temp;Humidity;BMP_temperature;BMP_pressure;BME280_temperature;BME280_humidity;BME280_pressure;Samples;Min_cycle;Max_cycle;Signal;HPM_P1;HPM_P2
2024/01/27 00:02:07;;;;;;;20.92;4.75;;;;;;;;;;5098087;27;20404;-86
2024/01/27 00:04:36;;;;;;;21.73;4.65;;;;;;;;;;5099336;28;20484;-86
2024/01/27 00:07:02;;;;;;;26.55;5.25;;;;;;;;;;5127830;27;20402;-86
2024/01/27 00:09:28;;;;;;;28.88;5.30;;;;;;;;;;5078593;28;20418;-86
2024/01/27 00:11:54;;;;;;;24.58;5.10;;;;;;;;;;5090049;28;20420;-86
2024/01/27 00:14:20;;;;;;;28.48;5.03;;;;;;;;;;5092779;28;20404;-87
2024/01/27 00:16:46;;;;;;;26.80;5.15;;;;;;;;;;5112111;28;20819;-86
2024/01/27 00:19:12;;;;;;;25.02;5.32;;;;;;;;;;5110007;28;20485;-86
2024/01/27 00:21:38;;;;;;;24.85;4.85;;;;;;;;;;5089537;28;20400;-86
2024/01/27 00:24:05;;;;;;;25.23;4.90;;;;;;;;;;5147526;27;20718;-86
2024/01/27 00:26:31;;;;;;;25.52;5.25;;;;;;;;;;5079829;28;20501;-86
2024/01/27 00:28:57;;;;;;;25.58;5.15;;;;;;;;;;5089432;28;20479;-86
2024/01/27 00:31:23;;;;;;;28.77;5.10;;;;;;;;;;5087822;28;20488;-86
2024/01/27 00:33:49;;;;;;;30.10;6.05;;;;;;;;;;5146848;27;20827;-86
2024/01/27 00:36:15;;;;;;;22.92;5.38;;;;;;;;;;5085160;28;20450;-86
2024/01/27 00:38:41;;;;;;;28.17;5.10;;;;;;;;;;5112113;28;20822;-86
2024/01/27 00:41:09;;;;;;;24.55;5.30;;;;;;;;;;5078298;28;20812;-86
2024/01/27 00:43:35;;;;;;;22.52;4.53;;;;;;;;;;5078301;28;20408;-86
2024/01/27 00:46:02;;;;;;;32.35;5.13;;;;;;;;;;5097266;28;20810;-86
2024/01/27 00:48:28;;;;;;;22.40;5.10;;;;;;;;;;5094963;28;20752;-86
2024/01/27 00:50:54;;;;;;;28.17;5.07;;;;;;;;;;5098142;28;20402;-86
2024/01/27 00:53:20;;;;;;;23.90;5.30;;;;;;;;;;5095201;28;20900;-86
2024/01/27 00:55:46;;;;;;;28.77;5.25;;;;;;;;;;5093285;28;20448;-87
2024/01/27 00:58:12;;;;;;;27.42;5.80;;;;;;;;;;5091291;28;20419;-87
2024/01/27 01:00:38;;;;;;;27.73;5.22;;;;;;;;;;5090342;28;20414;-86
2024/01/27 01:03:04;;;;;;;22.23;5.78;;;;;;;;;;5074184;28;20474;-87
2024/01/27 01:05:30;;;;;;;22.02;5.18;;;;;;;;;;5111875;27;20489;-86
2024/01/27 01:07:56;;;;;;;24.48;5.03;;;;;;;;;;5108067;27;20408;-87
2024/01/27 01:10:26;;;;;;;24.52;4.90;;;;;;;;;;5091645;28;20407;-86
2024/01/27 01:12:52;;;;;;;23.58;4.38;;;;;;;;;;5091744;28;20393;-86
2024/01/27 01:15:18;;;;;;;28.52;5.10;;;;;;;;;;5090767;28;20409;-86
2024/01/27 01:17:44;;;;;;;31.95;6.28;;;;;;;;;;5089379;28;20458;-86
2024/01/27 01:20:11;;;;;;;22.73;4.32;;;;;;;;;;5090563;28;20417;-86
2024/01/27 01:22:37;;;;;;;25.33;5.03;;;;;;;;;;5107770;28;20458;-87
2024/01/27 01:25:03;;;;;;;29.88;5.60;;;;;;;;;;5090746;28;20398;-86
2024/01/27 01:27:29;;;;;;;26.38;4.82;;;;;;;;;;5088524;28;20399;-86
2024/01/27 01:29:55;;;;;;;21.60;4.17;;;;;;;;;;5074702;28;20398;-86
2024/01/27 01:32:21;;;;;;;19.83;4.10;;;;;;;;;;5099366;28;20400;-86
2024/01/27 01:34:48;;;;;;;32.10;5.10;;;;;;;;;;5096721;28;20417;-87
2024/01/27 01:37:14;;;;;;;25.70;4.80;;;;;;;;;;5098752;28;20402;-87
2024/01/27 01:39:40;;;;;;;26.80;4.50;;;;;;;;;;5076190;28;20423;-86
2024/01/27 01:42:06;;;;;;;22.67;4.50;;;;;;;;;;5090421;28;20417;-87
2024/01/27 01:44:32;;;;;;;24.85;4.18;;;;;;;;;;5091887;28;20439;-87
2024/01/27 01:46:59;;;;;;;20.88;4.00;;;;;;;;;;5079867;28;20450;-87
2024/01/27 01:49:25;;;;;;;23.60;4.97;;;;;;;;;;5136768;27;20432;-87
2024/01/27 01:51:51;;;;;;;25.42;5.53;;;;;;;;;;5100808;28;20420;-87
2024/01/27 01:54:18;;;;;;;26.85;4.18;;;;;;;;;;5129779;27;20397;-86
2024/01/27 01:56:44;;;;;;;21.88;4.38;;;;;;;;;;5084048;28;20402;-86
2024/01/27 01:59:11;;;;;;;23.27;5.20;;;;;;;;;;5090082;28;20551;-86
2024/01/27 02:01:37;;;;;;;22.02;4.38;;;;;;;;;;5108242;28;20405;-86
2024/01/27 02:04:04;;;;;;;26.38;4.55;;;;;;;;;;5095048;28;20402;-86
2024/01/27 02:06:31;;;;;;;20.98;4.30;;;;;;;;;;5085693;28;20796;-86
2024/01/27 02:08:57;;;;;;;26.80;5.63;;;;;;;;;;5090234;28;20412;-87
2024/01/27 02:11:23;;;;;;;23.35;4.30;;;;;;;;;;5106777;28;20847;-86
2024/01/27 02:13:55;;;;;;;22.52;4.38;;;;;;;;;;5116326;27;20429;-86
2024/01/27 02:16:24;;;;;;;20.52;4.43;;;;;;;;;;5138582;27;20400;-86
2024/01/27 02:18:50;;;;;;;26.00;4.38;;;;;;;;;;5104000;28;20433;-86
2024/01/27 02:21:19;;;;;;;19.47;4.07;;;;;;;;;;5114566;27;20750;-86
2024/01/27 02:23:45;;;;;;;30.40;4.63;;;;;;;;;;5092565;28;20404;-86
2024/01/27 02:26:11;;;;;;;21.27;4.50;;;;;;;;;;5091870;28;20400;-83
2024/01/27 02:28:37;;;;;;;24.10;4.15;;;;;;;;;;5100976;28;20835;-83
2024/01/27 02:31:03;;;;;;;22.33;3.85;;;;;;;;;;5073095;28;20485;-83
2024/01/27 02:33:29;;;;;;;24.42;4.75;;;;;;;;;;5107440;28;20405;-83
2024/01/27 02:35:55;;;;;;;27.02;5.00;;;;;;;;;;5144484;27;20433;-83
2024/01/27 02:38:21;;;;;;;24.50;3.90;;;;;;;;;;5095829;28;20422;-83
2024/01/27 02:40:47;;;;;;;23.55;4.10;;;;;;;;;;5086538;28;20745;-83
2024/01/27 02:43:16;;;;;;;23.30;4.20;;;;;;;;;;5124631;27;20884;-83
2024/01/27 02:45:42;;;;;;;18.80;3.40;;;;;;;;;;5104549;28;20498;-83
2024/01/27 02:48:08;;;;;;;19.92;3.97;;;;;;;;;;5072566;28;20402;-83
2024/01/27 02:50:34;;;;;;;20.75;4.40;;;;;;;;;;5084623;28;20400;-83
2024/01/27 02:53:00;;;;;;;18.35;3.70;;;;;;;;;;5090193;28;20457;-83
2024/01/27 02:55:26;;;;;;;20.23;3.83;;;;;;;;;;5147674;27;20822;-83
2024/01/27 02:57:52;;;;;;;25.20;4.78;;;;;;;;;;5141129;27;20404;-83
2024/01/27 03:00:19;;;;;;;26.70;5.50;;;;;;;;;;5093640;28;20414;-83
2024/01/27 03:02:45;;;;;;;21.73;3.90;;;;;;;;;;5093283;28;20509;-83
2024/01/27 03:05:13;;;;;;;25.10;3.87;;;;;;;;;;5109212;28;20396;-83
2024/01/27 03:07:40;;;;;;;28.33;5.03;;;;;;;;;;5077491;28;20406;-83
2024/01/27 03:10:06;;;;;;;28.80;4.13;;;;;;;;;;5095241;27;20409;-83
2024/01/27 03:12:32;;;;;;;28.85;4.72;;;;;;;;;;5112089;27;20406;-83
2024/01/27 03:14:58;;;;;;;27.05;3.78;;;;;;;;;;5077017;28;20401;-83
2024/01/27 03:17:25;;;;;;;19.42;3.70;;;;;;;;;;5114554;28;20438;-83
2024/01/27 03:19:51;;;;;;;23.38;4.20;;;;;;;;;;5083501;27;20427;-83
2024/01/27 03:22:17;;;;;;;26.30;4.45;;;;;;;;;;5096702;28;20463;-83
2024/01/27 03:24:43;;;;;;;23.35;3.90;;;;;;;;;;5103569;28;20419;-83
2024/01/27 03:27:09;;;;;;;23.47;4.33;;;;;;;;;;5084116;28;20459;-83
2024/01/27 03:29:35;;;;;;;18.13;4.03;;;;;;;;;;5100646;28;20429;-83
2024/01/27 03:32:05;;;;;;;21.77;3.92;;;;;;;;;;5095660;27;20460;-83
2024/01/27 03:34:31;;;;;;;22.00;4.35;;;;;;;;;;5133551;27;20452;-82
2024/01/27 03:36:57;;;;;;;24.45;4.68;;;;;;;;;;5091778;28;20404;-82
2024/01/27 03:39:23;;;;;;;18.98;4.57;;;;;;;;;;5138180;27;20488;-82
2024/01/27 03:41:49;;;;;;;31.38;4.75;;;;;;;;;;5122674;27;20426;-82
2024/01/27 03:44:15;;;;;;;25.02;4.25;;;;;;;;;;5092438;28;20396;-82
2024/01/27 03:46:41;;;;;;;24.48;4.00;;;;;;;;;;5109702;28;20793;-82
2024/01/27 03:49:07;;;;;;;20.20;3.87;;;;;;;;;;5111186;28;20483;-82
2024/01/27 03:51:33;;;;;;;24.02;3.97;;;;;;;;;;5102579;27;20778;-82
2024/01/27 03:53:59;;;;;;;25.38;4.97;;;;;;;;;;5101406;28;20438;-82
2024/01/27 03:56:26;;;;;;;24.45;4.45;;;;;;;;;;5092421;28;20409;-82
2024/01/27 03:58:52;;;;;;;21.20;4.10;;;;;;;;;;5095291;28;20477;-82
2024/01/27 04:01:18;;;;;;;22.05;3.65;;;;;;;;;;5145164;27;20446;-82
2024/01/27 04:03:44;;;;;;;21.08;4.05;;;;;;;;;;5107978;28;20440;-82
2024/01/27 04:06:10;;;;;;;22.70;4.88;;;;;;;;;;5078456;28;20749;-82
2024/01/27 04:08:36;;;;;;;21.73;3.97;;;;;;;;;;5074133;28;20433;-81
2024/01/27 04:11:02;;;;;;;24.48;4.80;;;;;;;;;;5075064;28;20417;-82
2024/01/27 04:13:28;;;;;;;25.88;4.90;;;;;;;;;;5107370;27;20760;-81
2024/01/27 04:15:54;;;;;;;18.73;4.65;;;;;;;;;;5095502;28;20411;-81
2024/01/27 04:18:20;;;;;;;18.02;3.65;;;;;;;;;;5095172;28;20416;-81
2024/01/27 04:20:48;;;;;;;20.57;3.90;;;;;;;;;;5091233;28;20407;-81
2024/01/27 04:23:14;;;;;;;21.23;3.67;;;;;;;;;;5104642;27;20396;-81
2024/01/27 04:25:41;;;;;;;20.00;4.35;;;;;;;;;;5096359;28;20465;-81
2024/01/27 04:28:12;;;;;;;20.08;4.93;;;;;;;;;;5094830;28;20404;-81
2024/01/27 04:30:38;;;;;;;23.30;4.15;;;;;;;;;;5081453;28;20459;-81
2024/01/27 04:33:07;;;;;;;26.00;4.28;;;;;;;;;;5106792;28;20416;-81
2024/01/27 04:35:33;;;;;;;20.55;4.35;;;;;;;;;;5136514;27;20507;-81
2024/01/27 04:37:59;;;;;;;26.95;4.70;;;;;;;;;;5128209;27;20409;-81
2024/01/27 04:40:25;;;;;;;25.65;4.55;;;;;;;;;;5093209;28;20488;-81
2024/01/27 04:42:51;;;;;;;19.05;4.10;;;;;;;;;;5138261;27;20471;-81
2024/01/27 04:45:17;;;;;;;23.75;4.03;;;;;;;;;;5132844;27;20410;-81
2024/01/27 04:47:43;;;;;;;18.83;3.72;;;;;;;;;;5106933;28;20479;-81
2024/01/27 04:50:09;;;;;;;24.02;4.40;;;;;;;;;;5132004;27;20421;-81
2024/01/27 04:52:36;;;;;;;24.58;4.20;;;;;;;;;;5094271;28;20400;-81
2024/01/27 04:55:03;;;;;;;18.70;4.13;;;;;;;;;;5107344;28;20447;-81
2024/01/27 04:57:29;;;;;;;20.15;4.15;;;;;;;;;;5095982;28;20684;-81
2024/01/27 04:59:55;;;;;;;27.40;3.90;;;;;;;;;;5076962;28;20967;-81
2024/01/27 05:02:21;;;;;;;23.97;4.27;;;;;;;;;;5085393;28;20404;-81
2024/01/27 05:04:47;;;;;;;25.02;3.78;;;;;;;;;;5109727;27;20408;-81
2024/01/27 05:07:14;;;;;;;26.70;4.28;;;;;;;;;;5085002;28;20399;-81
2024/01/27 05:09:40;;;;;;;24.50;4.50;;;;;;;;;;5093747;28;20454;-81
2024/01/27 05:12:07;;;;;;;21.15;4.53;;;;;;;;;;5074252;28;20428;-81
2024/01/27 05:14:33;;;;;;;23.73;4.28;;;;;;;;;;5101326;28;20408;-81
2024/01/27 05:16:59;;;;;;;22.58;5.18;;;;;;;;;;5126781;27;20402;-81
2024/01/27 05:19:25;;;;;;;23.60;5.30;;;;;;;;;;5110665;28;20477;-85
2024/01/27 05:21:51;;;;;;;19.33;3.95;;;;;;;;;;5085853;28;20428;-85
2024/01/27 05:24:17;;;;;;;25.60;4.68;;;;;;;;;;5138801;27;20400;-85
2024/01/27 05:26:43;;;;;;;21.92;4.75;;;;;;;;;;5131075;27;20413;-85
2024/01/27 05:29:10;;;;;;;21.02;6.00;;;;;;;;;;5091871;28;20405;-86
2024/01/27 05:31:36;;;;;;;28.77;5.30;;;;;;;;;;5091740;28;20401;-86
2024/01/27 05:34:02;;;;;;;30.60;5.82;;;;;;;;;;5108021;27;20408;-85
2024/01/27 05:36:29;;;;;;;23.52;5.40;;;;;;;;;;5094730;28;20483;-85
2024/01/27 05:38:55;;;;;;;25.73;5.25;;;;;;;;;;5093278;28;20534;-85
2024/01/27 05:41:25;;;;;;;24.77;4.80;;;;;;;;;;5105002;28;20403;-86
2024/01/27 05:43:52;;;;;;;27.42;5.40;;;;;;;;;;5091965;28;20740;-86
2024/01/27 05:46:18;;;;;;;21.93;4.67;;;;;;;;;;5085268;28;20954;-86
2024/01/27 05:48:44;;;;;;;26.80;5.00;;;;;;;;;;5093964;28;20790;-86
2024/01/27 05:51:10;;;;;;;18.98;4.47;;;;;;;;;;5110121;28;20430;-86
2024/01/27 05:53:37;;;;;;;34.83;5.63;;;;;;;;;;5092089;28;20396;-86
2024/01/27 05:56:03;;;;;;;25.75;5.57;;;;;;;;;;5141637;27;20405;-85
2024/01/27 05:58:29;;;;;;;23.77;5.47;;;;;;;;;;5101698;28;20415;-85
2024/01/27 06:00:55;;;;;;;38.58;6.05;;;;;;;;;;5090307;28;20420;-85
2024/01/27 06:03:21;;;;;;;25.77;4.90;;;;;;;;;;5103746;28;20482;-85
2024/01/27 06:05:48;;;;;;;25.70;5.88;;;;;;;;;;5127385;27;20484;-86
2024/01/27 06:08:14;;;;;;;27.00;5.30;;;;;;;;;;5091662;28;20463;-85
2024/01/27 06:10:40;;;;;;;26.38;5.25;;;;;;;;;;5091038;28;20909;-85
2024/01/27 06:13:06;;;;;;;25.90;4.72;;;;;;;;;;5092541;28;20432;-85
2024/01/27 06:15:32;;;;;;;37.40;6.50;;;;;;;;;;5091573;28;20401;-85
2024/01/27 06:17:58;;;;;;;44.72;6.55;;;;;;;;;;5093126;28;20416;-85
2024/01/27 06:20:24;;;;;;;28.55;6.45;;;;;;;;;;5140553;27;20418;-86
2024/01/27 06:22:52;;;;;;;25.25;5.57;;;;;;;;;;5094803;28;20836;-85
2024/01/27 06:25:18;;;;;;;35.35;7.30;;;;;;;;;;5115116;28;20396;-86
2024/01/27 06:27:44;;;;;;;24.10;5.43;;;;;;;;;;5130088;27;20398;-86
2024/01/27 06:30:11;;;;;;;28.50;5.53;;;;;;;;;;5107237;28;20435;-85
2024/01/27 06:32:37;;;;;;;29.88;7.10;;;;;;;;;;5139792;27;20397;-86
2024/01/27 06:35:04;;;;;;;25.65;5.65;;;;;;;;;;5113834;27;20984;-85
2024/01/27 06:37:30;;;;;;;30.40;6.50;;;;;;;;;;5138046;27;20406;-85
2024/01/27 06:39:56;;;;;;;79.93;10.67;;;;;;;;;;5113411;28;20949;-85
2024/01/27 06:42:22;;;;;;;29.55;6.18;;;;;;;;;;5108392;28;20406;-85
2024/01/27 06:44:48;;;;;;;23.98;5.00;;;;;;;;;;5123055;27;20404;-85
2024/01/27 06:47:14;;;;;;;26.00;5.43;;;;;;;;;;5108881;28;20452;-85
2024/01/27 06:49:40;;;;;;;30.77;6.10;;;;;;;;;;5086010;28;20403;-84
2024/01/27 06:52:06;;;;;;;27.33;6.13;;;;;;;;;;5137507;27;20982;-85
2024/01/27 06:54:32;;;;;;;33.97;6.13;;;;;;;;;;5108681;28;20402;-85
2024/01/27 06:57:05;;;;;;;31.85;6.15;;;;;;;;;;5110074;27;20430;-85
2024/01/27 06:59:36;;;;;;;24.80;5.57;;;;;;;;;;5108470;28;20428;-85
2024/01/27 07:02:02;;;;;;;33.57;6.60;;;;;;;;;;5096323;27;20520;-85
2024/01/27 07:04:28;;;;;;;24.05;5.88;;;;;;;;;;5102841;27;20889;-85
2024/01/27 07:06:54;;;;;;;41.72;6.57;;;;;;;;;;5129023;27;20400;-85
2024/01/27 07:09:20;;;;;;;23.88;5.63;;;;;;;;;;5097090;28;20414;-85
2024/01/27 07:11:47;;;;;;;28.63;6.10;;;;;;;;;;5096786;28;20795;-85
2024/01/27 07:14:13;;;;;;;25.90;6.03;;;;;;;;;;5094670;28;20851;-85
2024/01/27 07:16:39;;;;;;;28.00;6.50;;;;;;;;;;5091098;28;20403;-85
2024/01/27 07:19:05;;;;;;;35.72;6.90;;;;;;;;;;5113429;28;20420;-85
2024/01/27 07:21:31;;;;;;;32.33;6.97;;;;;;;;;;5109060;28;20392;-85
2024/01/27 07:23:57;;;;;;;30.50;8.25;;;;;;;;;;5128188;27;20397;-85
2024/01/27 07:26:24;;;;;;;36.88;7.05;;;;;;;;;;5137501;27;20430;-85
2024/01/27 07:28:50;;;;;;;29.10;7.17;;;;;;;;;;5084268;28;20928;-86
2024/01/27 07:31:17;;;;;;;31.00;9.73;;;;;;;;;;5110178;28;20404;-85
2024/01/27 07:33:45;;;;;;;28.38;6.55;;;;;;;;;;5104853;28;20456;-85
2024/01/27 07:36:11;;;;;;;31.70;6.60;;;;;;;;;;5096278;28;20423;-86
2024/01/27 07:38:37;;;;;;;25.10;6.57;;;;;;;;;;5106982;28;20430;-86
2024/01/27 07:41:03;;;;;;;28.02;7.90;;;;;;;;;;5090376;28;20437;-86
2024/01/27 07:43:30;;;;;;;26.35;7.72;;;;;;;;;;5128007;27;20409;-88
2024/01/27 07:45:56;;;;;;;29.38;6.25;;;;;;;;;;5100783;28;20445;-87
2024/01/27 07:48:22;;;;;;;30.98;6.80;;;;;;;;;;5085644;28;20410;-87
2024/01/27 07:50:49;;;;;;;30.05;6.97;;;;;;;;;;5091974;28;20408;-80
2024/01/27 07:53:15;;;;;;;32.45;7.63;;;;;;;;;;5129368;27;20426;-80
2024/01/27 07:55:42;;;;;;;33.95;7.10;;;;;;;;;;5097850;28;20892;-81
2024/01/27 07:58:08;;;;;;;32.95;7.32;;;;;;;;;;5107139;28;20414;-81
2024/01/27 08:00:34;;;;;;;26.52;7.40;;;;;;;;;;5110583;28;20396;-80
2024/01/27 08:03:00;;;;;;;32.13;7.40;;;;;;;;;;5137272;27;20573;-80
2024/01/27 08:05:27;;;;;;;36.78;7.40;;;;;;;;;;5097762;28;20428;-80
2024/01/27 08:07:53;;;;;;;29.85;7.28;;;;;;;;;;5108750;28;20409;-80
2024/01/27 08:10:19;;;;;;;28.75;7.75;;;;;;;;;;5122081;27;20398;-80
2024/01/27 08:12:45;;;;;;;32.93;8.17;;;;;;;;;;5085798;28;20487;-80
2024/01/27 08:15:12;;;;;;;27.50;6.82;;;;;;;;;;5136475;27;20457;-80
2024/01/27 08:17:38;;;;;;;28.23;7.32;;;;;;;;;;5094838;28;20399;-81
2024/01/27 08:20:05;;;;;;;24.92;7.28;;;;;;;;;;5132354;27;20444;-81
2024/01/27 08:22:31;;;;;;;33.10;8.88;;;;;;;;;;5085724;28;20517;-81
2024/01/27 08:24:57;;;;;;;26.58;7.70;;;;;;;;;;5106391;27;20392;-81
2024/01/27 08:27:23;;;;;;;30.00;8.80;;;;;;;;;;5081810;28;20403;-81
2024/01/27 08:29:49;;;;;;;34.50;9.52;;;;;;;;;;5089316;28;20416;-81
2024/01/27 08:32:15;;;;;;;28.00;8.85;;;;;;;;;;5081901;28;20494;-81
2024/01/27 08:34:41;;;;;;;27.38;8.90;;;;;;;;;;5104754;28;20406;-81
2024/01/27 08:37:15;;;;;;;32.38;9.20;;;;;;;;;;5091972;28;20949;-81
2024/01/27 08:39:41;;;;;;;28.15;9.52;;;;;;;;;;5135721;27;20627;-81
2024/01/27 08:42:07;;;;;;;29.08;9.35;;;;;;;;;;5091162;27;20407;-80
2024/01/27 08:44:33;;;;;;;25.52;8.68;;;;;;;;;;5088675;27;20424;-81
2024/01/27 08:46:59;;;;;;;29.90;9.20;;;;;;;;;;5083131;28;20425;-81
2024/01/27 08:49:26;;;;;;;32.05;9.32;;;;;;;;;;5074649;28;20420;-81
2024/01/27 08:51:52;;;;;;;27.20;9.85;;;;;;;;;;5130499;27;20989;-80
2024/01/27 08:54:18;;;;;;;32.70;10.13;;;;;;;;;;5107333;27;20568;-80
2024/01/27 08:56:44;;;;;;;34.30;9.27;;;;;;;;;;5077864;28;20474;-81
2024/01/27 08:59:10;;;;;;;25.58;9.40;;;;;;;;;;5132723;27;20430;-81
2024/01/27 09:01:36;;;;;;;37.35;10.23;;;;;;;;;;5138209;27;20447;-81
2024/01/27 09:04:02;;;;;;;34.58;10.00;;;;;;;;;;5097902;28;20400;-80
2024/01/27 09:06:28;;;;;;;26.48;9.52;;;;;;;;;;5071801;28;20780;-79
2024/01/27 09:08:54;;;;;;;27.05;9.07;;;;;;;;;;5102524;28;20408;-86
2024/01/27 09:11:23;;;;;;;31.50;10.27;;;;;;;;;;5103547;28;20442;-85
2024/01/27 09:13:51;;;;;;;28.50;8.95;;;;;;;;;;5108816;27;20402;-84
2024/01/27 09:16:18;;;;;;;29.55;9.10;;;;;;;;;;5115111;27;20919;-89
2024/01/27 09:18:44;;;;;;;23.15;8.93;;;;;;;;;;5129853;27;20413;-88
2024/01/27 09:21:12;;;;;;;27.20;10.60;;;;;;;;;;5116354;27;20444;-85
2024/01/27 09:23:38;;;;;;;30.70;9.03;;;;;;;;;;5107593;28;20764;-86
2024/01/27 09:26:05;;;;;;;29.17;9.32;;;;;;;;;;5110537;27;20414;-86
2024/01/27 09:28:31;;;;;;;35.07;9.90;;;;;;;;;;5085252;28;20439;-86
2024/01/27 09:30:57;;;;;;;27.85;9.60;;;;;;;;;;5100826;28;20420;-84
2024/01/27 09:33:23;;;;;;;26.98;8.95;;;;;;;;;;5094087;28;20402;-86
2024/01/27 09:35:50;;;;;;;27.80;9.37;;;;;;;;;;5105528;28;20435;-85
2024/01/27 09:38:16;;;;;;;28.17;8.38;;;;;;;;;;5090466;28;20735;-86
2024/01/27 09:40:42;;;;;;;21.95;8.73;;;;;;;;;;5104985;28;20684;-86
2024/01/27 09:43:12;;;;;;;24.52;9.13;;;;;;;;;;5083249;28;20396;-87
2024/01/27 09:45:38;;;;;;;24.70;8.55;;;;;;;;;;5085101;28;20419;-89
2024/01/27 09:48:05;;;;;;;25.03;8.77;;;;;;;;;;5104029;28;20397;-89
2024/01/27 09:50:31;;;;;;;27.15;8.73;;;;;;;;;;5115647;28;20526;-86
2024/01/27 09:52:57;;;;;;;21.67;8.63;;;;;;;;;;5087099;28;20419;-86
2024/01/27 09:55:24;;;;;;;25.27;8.50;;;;;;;;;;5117337;28;20389;-87
2024/01/27 09:57:50;;;;;;;24.50;8.60;;;;;;;;;;5103706;28;20400;-87
2024/01/27 10:00:17;;;;;;;23.85;8.68;;;;;;;;;;5129358;27;20428;-87
2024/01/27 10:02:43;;;;;;;25.73;8.20;;;;;;;;;;5143103;27;20399;-88
2024/01/27 10:05:09;;;;;;;22.23;8.40;;;;;;;;;;5142645;27;20427;-88
2024/01/27 10:07:36;;;;;;;27.20;7.70;;;;;;;;;;5107996;28;20900;-88
2024/01/27 10:10:02;;;;;;;21.42;7.88;;;;;;;;;;5092919;28;20415;-86
2024/01/27 10:12:29;;;;;;;28.80;8.70;;;;;;;;;;5112274;28;20400;-87
2024/01/27 10:14:55;;;;;;;23.05;7.90;;;;;;;;;;5089922;28;20398;-87
2024/01/27 10:17:22;;;;;;;25.88;8.13;;;;;;;;;;5131264;27;20403;-87
2024/01/27 10:20:00;;;;;;;23.10;7.90;;;;;;;;;;5093782;28;20426;-84
2024/01/27 10:22:27;;;;;;;20.08;7.10;;;;;;;;;;5114430;28;20442;-85
2024/01/27 10:24:53;;;;;;;18.80;6.53;;;;;;;;;;5119635;27;20588;-85
2024/01/27 10:27:19;;;;;;;24.77;7.20;;;;;;;;;;5096036;28;20402;-85
2024/01/27 10:29:55;;;;;;;23.42;7.05;;;;;;;;;;5106825;28;20424;-85
2024/01/27 10:32:23;;;;;;;21.80;6.90;;;;;;;;;;5120850;27;20836;-85
2024/01/27 10:34:50;;;;;;;20.92;7.10;;;;;;;;;;5094878;28;20791;-84
2024/01/27 10:37:17;;;;;;;22.95;6.57;;;;;;;;;;5123983;27;20421;-84
2024/01/27 10:39:43;;;;;;;23.42;6.55;;;;;;;;;;5131650;27;20425;-84
2024/01/27 10:42:10;;;;;;;23.87;6.87;;;;;;;;;;5084324;28;20457;-85
2024/01/27 10:44:38;;;;;;;23.00;6.90;;;;;;;;;;5088767;28;20752;-84
2024/01/27 10:47:05;;;;;;;24.10;6.87;;;;;;;;;;5140922;27;20448;-84
2024/01/27 10:49:34;;;;;;;20.90;6.80;;;;;;;;;;5094558;28;20406;-85
2024/01/27 10:52:02;;;;;;;19.30;6.85;;;;;;;;;;5089338;28;20406;-86
2024/01/27 10:54:28;;;;;;;20.65;6.97;;;;;;;;;;5097554;28;20479;-85
2024/01/27 10:56:59;;;;;;;22.50;7.35;;;;;;;;;;5096716;28;20757;-86
2024/01/27 10:59:27;;;;;;;22.63;7.03;;;;;;;;;;5102120;28;20456;-85
2024/01/27 11:01:54;;;;;;;21.90;7.28;;;;;;;;;;5123035;27;20410;-85
2024/01/27 11:04:21;;;;;;;25.83;7.37;;;;;;;;;;5088590;28;20499;-86
2024/01/27 11:06:50;;;;;;;21.50;7.53;;;;;;;;;;5086543;28;20416;-85
2024/01/27 11:09:17;;;;;;;22.50;6.83;;;;;;;;;;5086774;28;20416;-85
2024/01/27 11:11:45;;;;;;;18.33;6.68;;;;;;;;;;5112309;28;20459;-84
2024/01/27 11:14:11;;;;;;;19.07;6.33;;;;;;;;;;5135013;27;20425;-84
2024/01/27 11:16:43;;;;;;;19.50;6.50;;;;;;;;;;5096600;28;20406;-85
2024/01/27 11:19:11;;;;;;;25.02;6.50;;;;;;;;;;5134959;27;20820;-86
2024/01/27 11:21:37;;;;;;;22.85;5.93;;;;;;;;;;5130270;27;20405;-86
2024/01/27 11:24:13;;;;;;;19.25;5.72;;;;;;;;;;5081238;28;20398;-85
2024/01/27 11:26:39;;;;;;;21.13;5.82;;;;;;;;;;5109942;28;20454;-85
2024/01/27 11:29:19;;;;;;;19.98;5.60;;;;;;;;;;5087902;28;20900;-84
2024/01/27 11:31:45;;;;;;;18.35;5.82;;;;;;;;;;5130580;27;20979;-86
2024/01/27 11:34:19;;;;;;;17.63;6.00;;;;;;;;;;5111035;28;20409;-85
2024/01/27 11:36:45;;;;;;;26.07;6.10;;;;;;;;;;5131651;27;20968;-86
2024/01/27 11:39:28;;;;;;;18.77;6.18;;;;;;;;;;5099029;28;20786;-85
2024/01/27 11:42:04;;;;;;;19.15;5.82;;;;;;;;;;5076659;28;20886;-86
2024/01/27 11:44:36;;;;;;;19.33;5.93;;;;;;;;;;5095966;28;20594;-86
2024/01/27 11:47:06;;;;;;;20.35;5.35;;;;;;;;;;5092689;28;20495;-86
2024/01/27 11:49:33;;;;;;;17.70;5.30;;;;;;;;;;5134102;27;20417;-86
2024/01/27 11:51:59;;;;;;;19.05;5.45;;;;;;;;;;5096137;28;20408;-85
2024/01/27 11:54:26;;;;;;;22.17;4.97;;;;;;;;;;5095259;28;20744;-86
2024/01/27 11:56:52;;;;;;;15.27;4.60;;;;;;;;;;5091661;28;20405;-86
2024/01/27 11:59:18;;;;;;;18.00;5.05;;;;;;;;;;5060190;28;20425;-85
2024/01/27 12:01:44;;;;;;;17.85;5.00;;;;;;;;;;5075294;28;20400;-86
2024/01/27 12:04:10;;;;;;;17.00;4.75;;;;;;;;;;5079829;28;20400;-87
2024/01/27 12:06:38;;;;;;;20.15;5.13;;;;;;;;;;5108753;28;20398;-86
2024/01/27 12:09:11;;;;;;;20.38;4.57;;;;;;;;;;5101919;27;20404;-87
2024/01/27 12:11:41;;;;;;;19.85;4.65;;;;;;;;;;5091102;28;20408;-86
2024/01/27 12:14:07;;;;;;;14.40;4.80;;;;;;;;;;5087291;28;20952;-86
2024/01/27 12:16:33;;;;;;;17.00;4.60;;;;;;;;;;5124920;27;20420;-86
2024/01/27 12:18:59;;;;;;;20.85;5.57;;;;;;;;;;5095973;28;20428;-87
2024/01/27 12:21:25;;;;;;;17.10;4.82;;;;;;;;;;5094252;28;20420;-87
2024/01/27 12:23:58;;;;;;;18.58;4.60;;;;;;;;;;5105602;28;20477;-86
2024/01/27 12:26:28;;;;;;;13.43;4.57;;;;;;;;;;5108669;27;20417;-85
2024/01/27 12:28:55;;;;;;;16.27;4.47;;;;;;;;;;5102150;28;20476;-87
2024/01/27 12:31:23;;;;;;;18.53;4.33;;;;;;;;;;5096457;27;20421;-86
2024/01/27 12:33:52;;;;;;;18.90;5.28;;;;;;;;;;5095382;28;20479;-87
2024/01/27 12:36:20;;;;;;;16.73;4.50;;;;;;;;;;5132647;27;20424;-86
2024/01/27 12:38:59;;;;;;;22.05;5.03;;;;;;;;;;5102192;27;20436;-87
2024/01/27 12:41:29;;;;;;;15.50;4.43;;;;;;;;;;5114148;27;20416;-87
2024/01/27 12:43:57;;;;;;;16.50;4.35;;;;;;;;;;5084717;28;20889;-86
2024/01/27 12:46:24;;;;;;;18.95;4.75;;;;;;;;;;5092595;28;20393;-88
2024/01/27 12:48:50;;;;;;;15.10;4.40;;;;;;;;;;5096559;28;20786;-88
2024/01/27 12:51:16;;;;;;;14.10;4.13;;;;;;;;;;5096555;28;20401;-86
2024/01/27 12:53:44;;;;;;;14.60;4.47;;;;;;;;;;5137114;27;20473;-86
2024/01/27 12:56:11;;;;;;;20.10;4.53;;;;;;;;;;5104429;27;20402;-86
2024/01/27 12:58:37;;;;;;;17.98;4.53;;;;;;;;;;5111631;28;20517;-86
2024/01/27 13:01:03;;;;;;;22.23;4.70;;;;;;;;;;5088996;28;20400;-85
2024/01/27 13:03:29;;;;;;;15.32;4.53;;;;;;;;;;5091838;28;20404;-86
2024/01/27 13:05:56;;;;;;;15.80;4.60;;;;;;;;;;5093828;28;20432;-86
2024/01/27 13:08:23;;;;;;;20.63;4.67;;;;;;;;;;5092145;28;20413;-86
2024/01/27 13:10:49;;;;;;;17.25;4.60;;;;;;;;;;5081315;28;20497;-85
2024/01/27 13:13:15;;;;;;;17.60;4.97;;;;;;;;;;5091805;28;20473;-86
2024/01/27 13:15:41;;;;;;;19.95;4.60;;;;;;;;;;5080194;28;20404;-85
2024/01/27 13:18:08;;;;;;;15.68;4.80;;;;;;;;;;5123351;27;20782;-86
2024/01/27 13:20:34;;;;;;;17.95;4.43;;;;;;;;;;5096274;28;20427;-85
2024/01/27 13:23:00;;;;;;;19.33;4.47;;;;;;;;;;5138595;27;20400;-85
2024/01/27 13:25:29;;;;;;;15.57;4.07;;;;;;;;;;5097866;28;20400;-85
2024/01/27 13:27:55;;;;;;;17.30;4.50;;;;;;;;;;5094827;28;20864;-85
2024/01/27 13:30:22;;;;;;;15.35;4.18;;;;;;;;;;5074581;28;20742;-85
2024/01/27 13:32:49;;;;;;;24.27;5.18;;;;;;;;;;5112286;28;20491;-85
2024/01/27 13:35:15;;;;;;;17.70;4.93;;;;;;;;;;5097121;28;20438;-85
2024/01/27 13:37:41;;;;;;;18.33;4.25;;;;;;;;;;5076966;28;20430;-85
2024/01/27 13:40:10;;;;;;;23.37;4.67;;;;;;;;;;5081568;28;20511;-85
2024/01/27 13:42:37;;;;;;;22.38;4.90;;;;;;;;;;5104843;28;20401;-85
2024/01/27 13:45:04;;;;;;;15.80;4.72;;;;;;;;;;5091599;28;20805;-85
2024/01/27 13:47:30;;;;;;;19.70;4.45;;;;;;;;;;5073934;28;20398;-85
2024/01/27 13:49:57;;;;;;;20.15;4.93;;;;;;;;;;5092856;28;20400;-85
2024/01/27 13:52:23;;;;;;;18.10;4.57;;;;;;;;;;5141938;27;20428;-86
2024/01/27 13:54:49;;;;;;;15.10;4.47;;;;;;;;;;5096512;28;20420;-87
2024/01/27 13:57:25;;;;;;;21.23;4.97;;;;;;;;;;5094501;28;20405;-88
2024/01/27 13:59:51;;;;;;;18.70;5.00;;;;;;;;;;5094464;28;20444;-87
2024/01/27 14:02:17;;;;;;;23.17;5.55;;;;;;;;;;5093208;28;20433;-85
2024/01/27 14:04:44;;;;;;;25.23;5.38;;;;;;;;;;5120865;28;20419;-86
2024/01/27 14:07:10;;;;;;;19.65;5.50;;;;;;;;;;5134384;27;20898;-86
2024/01/27 14:09:38;;;;;;;20.02;5.22;;;;;;;;;;5094009;28;20415;-86
2024/01/27 14:12:04;;;;;;;16.27;5.30;;;;;;;;;;5128026;27;20484;-86
2024/01/27 14:14:31;;;;;;;15.73;5.70;;;;;;;;;;5088898;28;20409;-83
2024/01/27 14:16:57;;;;;;;25.02;6.75;;;;;;;;;;5094880;28;20404;-82
2024/01/27 14:19:23;;;;;;;16.38;5.45;;;;;;;;;;5087559;28;20443;-84
2024/01/27 14:21:49;;;;;;;19.42;5.82;;;;;;;;;;5091355;28;20547;-84
2024/01/27 14:24:16;;;;;;;23.15;5.93;;;;;;;;;;5072241;28;20475;-82
2024/01/27 14:26:42;;;;;;;18.73;5.97;;;;;;;;;;5074319;28;20474;-83